Ashley, Ohio
Current Conditions -  °F | °C
As of 7:56 AM on Friday 24 Oct 2014 (Local Time) from KDLZ Reporting Station
Haze Haze  
Wind Chill: 36°   Ceiling: Unl
Heat Index: 36°   Visibility: 3mi
Dew Point: 36°   Wind: 0mph
Humidity: 100%   Direction: NA
Pressure: 30.12"   Gusts: NA
Location:  40.41°N, 82.96°W
Report Text: KDLZ 241156Z AUTO 00000KT 3SM BR CLR 02/02 A3012 RMK AO2
Loading
Personal Weather Stations






























Interactive Weather Map
Tropical Storm Tracking
New forecast layout! Learn more

10-Day Weather Forecast

Advertisements
Track Severe Weather on mobile